Terminal Aerodrome Forecast
Issued by NWS

Home | Current Version | Previous Version | Text Only | Print | Product List | Glossary On
Versions: 1 2 3 4 5 6 7 8 9 10 11 12 13 14
000
FTUS43 KEAX 281700
TAFSTJ
TAF
KSTJ 281720Z 2818/2918 14012KT P6SM FEW070
     FM290900 19012G23KT P6SM VCSH BKN025 OVC100
     FM291600 28013KT P6SM FEW035=

USA.gov is the U.S. government's official web portal to all federal, state and local government web resources and services.